sensor_id;sensor_type;location;lat;lon;timestamp;pressure;altitude;pressure_sealevel;temperature;humidity
43711;BME280;29309;42.682;23.372;2022-10-22T00:00:12;96067.66;;;8.34;75.75
43711;BME280;29309;42.682;23.372;2022-10-22T00:02:38;96070.13;;;8.30;76.08
43711;BME280;29309;42.682;23.372;2022-10-22T00:05:04;96072.00;;;8.28;76.34
43711;BME280;29309;42.682;23.372;2022-10-22T00:07:31;96067.47;;;8.23;75.96
43711;BME280;29309;42.682;23.372;2022-10-22T00:09:57;96067.78;;;8.17;76.52
43711;BME280;29309;42.682;23.372;2022-10-22T00:12:22;96076.66;;;8.16;76.80
43711;BME280;29309;42.682;23.372;2022-10-22T00:14:48;96080.16;;;8.16;76.45
43711;BME280;29309;42.682;23.372;2022-10-22T00:17:16;96072.59;;;8.17;76.26
43711;BME280;29309;42.682;23.372;2022-10-22T00:19:42;96076.34;;;8.12;75.99
43711;BME280;29309;42.682;23.372;2022-10-22T00:22:08;96081.75;;;8.10;76.18
43711;BME280;29309;42.682;23.372;2022-10-22T00:24:35;96072.13;;;8.11;76.01
43711;BME280;29309;42.682;23.372;2022-10-22T00:27:06;96076.94;;;8.10;76.35
43711;BME280;29309;42.682;23.372;2022-10-22T00:29:31;96077.50;;;8.09;76.14
43711;BME280;29309;42.682;23.372;2022-10-22T00:31:57;96075.31;;;8.07;75.97
43711;BME280;29309;42.682;23.372;2022-10-22T00:34:23;96055.66;;;8.03;76.15
43711;BME280;29309;42.682;23.372;2022-10-22T00:36:49;96046.66;;;8.03;76.16
43711;BME280;29309;42.682;23.372;2022-10-22T00:39:17;96055.41;;;7.99;76.40
43711;BME280;29309;42.682;23.372;2022-10-22T00:41:45;96055.09;;;7.95;76.49
43711;BME280;29309;42.682;23.372;2022-10-22T00:47:15;96052.91;;;7.93;77.21
43711;BME280;29309;42.682;23.372;2022-10-22T00:49:41;96061.19;;;7.93;76.87
43711;BME280;29309;42.682;23.372;2022-10-22T00:52:07;96057.88;;;7.95;77.43
43711;BME280;29309;42.682;23.372;2022-10-22T00:54:33;96061.19;;;7.93;76.99
43711;BME280;29309;42.682;23.372;2022-10-22T00:57:00;96055.22;;;7.87;77.39
43711;BME280;29309;42.682;23.372;2022-10-22T00:59:26;96058.00;;;7.87;77.44
43711;BME280;29309;42.682;23.372;2022-10-22T01:01:53;96053.63;;;7.84;77.72
43711;BME280;29309;42.682;23.372;2022-10-22T01:04:19;96045.47;;;7.86;77.47
43711;BME280;29309;42.682;23.372;2022-10-22T01:06:44;96035.16;;;7.87;77.57
43711;BME280;29309;42.682;23.372;2022-10-22T01:09:15;96035.59;;;7.83;77.70
43711;BME280;29309;42.682;23.372;2022-10-22T01:17:18;96022.63;;;7.76;77.66
43711;BME280;29309;42.682;23.372;2022-10-22T01:31:22;96021.88;;;7.66;78.95
43711;BME280;29309;42.682;23.372;2022-10-22T01:33:50;96013.44;;;7.64;79.00
43711;BME280;29309;42.682;23.372;2022-10-22T01:36:18;96002.97;;;7.63;78.79
43711;BME280;29309;42.682;23.372;2022-10-22T01:38:44;96007.59;;;7.60;79.15
43711;BME280;29309;42.682;23.372;2022-10-22T01:41:11;96001.22;;;7.58;79.10
43711;BME280;29309;42.682;23.372;2022-10-22T01:43:36;96001.34;;;7.60;79.20
43711;BME280;29309;42.682;23.372;2022-10-22T01:46:04;95994.38;;;7.59;78.65
43711;BME280;29309;42.682;23.372;2022-10-22T01:59:32;96007.72;;;7.43;79.23
43711;BME280;29309;42.682;23.372;2022-10-22T02:07:35;96003.50;;;7.42;79.09
43711;BME280;29309;42.682;23.372;2022-10-22T02:10:03;96003.66;;;7.44;79.48
43711;BME280;29309;42.682;23.372;2022-10-22T02:12:30;96007.28;;;7.47;79.28
43711;BME280;29309;42.682;23.372;2022-10-22T02:14:57;96003.66;;;7.44;79.29
43711;BME280;29309;42.682;23.372;2022-10-22T02:17:25;96000.00;;;7.41;78.85
43711;BME280;29309;42.682;23.372;2022-10-22T02:20:26;95996.84;;;7.45;79.02
43711;BME280;29309;42.682;23.372;2022-10-22T02:22:49;95993.47;;;7.47;78.96
43711;BME280;29309;42.682;23.372;2022-10-22T02:25:15;95994.66;;;7.43;79.01
43711;BME280;29309;42.682;23.372;2022-10-22T02:27:48;95992.88;;;7.38;79.18
43711;BME280;29309;42.682;23.372;2022-10-22T02:30:17;95988.22;;;7.31;79.67
43711;BME280;29309;42.682;23.372;2022-10-22T02:33:01;96001.88;;;7.29;79.78
43711;BME280;29309;42.682;23.372;2022-10-22T02:35:29;96008.56;;;7.26;79.93
43711;BME280;29309;42.682;23.372;2022-10-22T02:37:56;96006.97;;;7.23;79.66
43711;BME280;29309;42.682;23.372;2022-10-22T02:40:23;96001.28;;;7.21;79.75
43711;BME280;29309;42.682;23.372;2022-10-22T02:42:49;96005.75;;;7.17;79.64
43711;BME280;29309;42.682;23.372;2022-10-22T02:45:19;96009.25;;;7.17;79.67
43711;BME280;29309;42.682;23.372;2022-10-22T02:47:44;96015.38;;;7.16;80.13
43711;BME280;29309;42.682;23.372;2022-10-22T02:50:10;96014.22;;;7.19;80.05
43711;BME280;29309;42.682;23.372;2022-10-22T02:52:36;96023.38;;;7.21;79.64
43711;BME280;29309;42.682;23.372;2022-10-22T02:55:03;96015.09;;;7.21;79.40
43711;BME280;29309;42.682;23.372;2022-10-22T02:57:29;96020.59;;;7.21;79.58
43711;BME280;29309;42.682;23.372;2022-10-22T02:59:54;96012.47;;;7.23;79.63
43711;BME280;29309;42.682;23.372;2022-10-22T03:02:20;96016.38;;;7.20;79.57
43711;BME280;29309;42.682;23.372;2022-10-22T03:04:45;96021.91;;;7.20;79.61
43711;BME280;29309;42.682;23.372;2022-10-22T03:07:10;96022.31;;;7.17;79.62
43711;BME280;29309;42.682;23.372;2022-10-22T03:09:36;96010.53;;;7.16;79.31
43711;BME280;29309;42.682;23.372;2022-10-22T03:12:01;96017.22;;;7.13;79.63
43711;BME280;29309;42.682;23.372;2022-10-22T03:14:27;96015.94;;;7.14;79.81
43711;BME280;29309;42.682;23.372;2022-10-22T03:16:52;96011.28;;;7.17;79.68
43711;BME280;29309;42.682;23.372;2022-10-22T03:19:17;96013.91;;;7.15;79.93
43711;BME280;29309;42.682;23.372;2022-10-22T03:21:48;96003.09;;;7.09;80.29
43711;BME280;29309;42.682;23.372;2022-10-22T03:24:17;96005.00;;;7.07;80.26
43711;BME280;29309;42.682;23.372;2022-10-22T03:26:46;96001.19;;;7.02;80.12
43711;BME280;29309;42.682;23.372;2022-10-22T03:29:14;96000.44;;;6.92;80.20
43711;BME280;29309;42.682;23.372;2022-10-22T03:31:40;95994.47;;;6.86;80.34
43711;BME280;29309;42.682;23.372;2022-10-22T03:34:06;96002.16;;;6.87;80.40
43711;BME280;29309;42.682;23.372;2022-10-22T03:36:32;96002.88;;;6.88;80.42
43711;BME280;29309;42.682;23.372;2022-10-22T03:38:59;95993.00;;;6.85;80.15
43711;BME280;29309;42.682;23.372;2022-10-22T03:41:25;95995.19;;;6.86;80.30
43711;BME280;29309;42.682;23.372;2022-10-22T03:43:50;96001.28;;;6.85;80.09
43711;BME280;29309;42.682;23.372;2022-10-22T03:46:18;95988.63;;;6.82;80.15
43711;BME280;29309;42.682;23.372;2022-10-22T03:48:43;95992.84;;;6.83;80.37
43711;BME280;29309;42.682;23.372;2022-10-22T03:51:09;95988.06;;;6.83;80.34
43711;BME280;29309;42.682;23.372;2022-10-22T03:53:35;95994.47;;;6.86;80.17
43711;BME280;29309;42.682;23.372;2022-10-22T03:56:00;96004.63;;;6.83;80.37
43711;BME280;29309;42.682;23.372;2022-10-22T03:58:25;96000.81;;;6.79;80.42
43711;BME280;29309;42.682;23.372;2022-10-22T04:00:51;95997.91;;;6.77;80.36
43711;BME280;29309;42.682;23.372;2022-10-22T04:03:16;95997.91;;;6.77;80.48
43711;BME280;29309;42.682;23.372;2022-10-22T04:05:42;95990.94;;;6.76;80.38
43711;BME280;29309;42.682;23.372;2022-10-22T04:08:07;95992.22;;;6.75;80.12
43711;BME280;29309;42.682;23.372;2022-10-22T04:10:32;95995.72;;;6.75;80.30
43711;BME280;29309;42.682;23.372;2022-10-22T04:12:58;95990.94;;;6.76;80.13
43711;BME280;29309;42.682;23.372;2022-10-22T04:15:24;95995.72;;;6.75;80.05
43711;BME280;29309;42.682;23.372;2022-10-22T04:17:52;96001.25;;;6.75;80.24
43711;BME280;29309;42.682;23.372;2022-10-22T04:20:17;95984.69;;;6.75;80.11
43711;BME280;29309;42.682;23.372;2022-10-22T04:22:43;95978.56;;;6.77;80.62
43711;BME280;29309;42.682;23.372;2022-10-22T04:25:09;95983.41;;;6.76;80.79
43711;BME280;29309;42.682;23.372;2022-10-22T04:27:34;95982.06;;;6.77;80.54
43711;BME280;29309;42.682;23.372;2022-10-22T04:30:00;95984.25;;;6.79;80.08
43711;BME280;29309;42.682;23.372;2022-10-22T04:32:26;95984.00;;;6.84;80.49
43711;BME280;29309;42.682;23.372;2022-10-22T04:34:52;95981.97;;;6.85;79.87
43711;BME280;29309;42.682;23.372;2022-10-22T04:37:17;95983.84;;;6.82;79.81
43711;BME280;29309;42.682;23.372;2022-10-22T04:39:43;95988.22;;;6.85;80.29
43711;BME280;29309;42.682;23.372;2022-10-22T04:42:08;95995.94;;;6.87;79.95
43711;BME280;29309;42.682;23.372;2022-10-22T04:44:34;95988.22;;;6.85;79.95
43711;BME280;29309;42.682;23.372;2022-10-22T04:46:59;95991.53;;;6.84;79.81
43711;BME280;29309;42.682;23.372;2022-10-22T04:49:25;95987.34;;;6.83;80.06
43711;BME280;29309;42.682;23.372;2022-10-22T04:51:50;95986.00;;;6.84;79.86
43711;BME280;29309;42.682;23.372;2022-10-22T04:54:16;95995.63;;;6.83;80.12
43711;BME280;29309;42.682;23.372;2022-10-22T04:56:41;95988.78;;;6.84;79.51
43711;BME280;29309;42.682;23.372;2022-10-22T04:59:08;95999.69;;;6.91;79.79
43711;BME280;29309;42.682;23.372;2022-10-22T05:01:40;96003.19;;;6.92;79.49
43711;BME280;29309;42.682;23.372;2022-10-22T05:04:07;96006.84;;;6.94;79.58
43711;BME280;29309;42.682;23.372;2022-10-22T05:06:35;96005.69;;;6.98;79.48
43711;BME280;29309;42.682;23.372;2022-10-22T05:09:05;96007.72;;;6.97;79.49
43711;BME280;29309;42.682;23.372;2022-10-22T05:11:35;96012.25;;;7.02;79.81
43711;BME280;29309;42.682;23.372;2022-10-22T05:14:03;96020.69;;;7.04;79.60
43711;BME280;29309;42.682;23.372;2022-10-22T05:16:30;96025.63;;;7.06;79.61
43711;BME280;29309;42.682;23.372;2022-10-22T05:18:57;96026.09;;;7.12;80.09
43711;BME280;29309;42.682;23.372;2022-10-22T05:21:23;96013.91;;;7.15;79.78
43711;BME280;29309;42.682;23.372;2022-10-22T05:23:49;96021.91;;;7.20;80.02
43711;BME280;29309;42.682;23.372;2022-10-22T05:26:17;96018.44;;;7.20;80.39
43711;BME280;29309;42.682;23.372;2022-10-22T05:28:43;96021.91;;;7.20;80.02
43711;BME280;29309;42.682;23.372;2022-10-22T05:31:11;96020.78;;;7.23;80.05
43711;BME280;29309;42.682;23.372;2022-10-22T05:33:37;96020.03;;;7.23;80.08
43711;BME280;29309;42.682;23.372;2022-10-22T05:36:03;96022.78;;;7.23;80.46
43711;BME280;29309;42.682;23.372;2022-10-22T05:38:30;96033.56;;;7.28;80.25
43711;BME280;29309;42.682;23.372;2022-10-22T05:41:07;96029.22;;;7.35;80.12
43711;BME280;29309;42.682;23.372;2022-10-22T05:43:34;96030.81;;;7.38;80.05
43711;BME280;29309;42.682;23.372;2022-10-22T05:46:08;96036.66;;;7.42;80.39
43711;BME280;29309;42.682;23.372;2022-10-22T05:48:34;96035.91;;;7.41;80.10
43711;BME280;29309;42.682;23.372;2022-10-22T05:51:04;96032.16;;;7.47;79.96
43711;BME280;29309;42.682;23.372;2022-10-22T05:53:35;96026.94;;;7.51;79.79
43711;BME280;29309;42.682;23.372;2022-10-22T05:56:06;96022.63;;;7.67;79.23
43711;BME280;29309;42.682;23.372;2022-10-22T05:58:32;96035.16;;;7.87;79.02
43711;BME280;29309;42.682;23.372;2022-10-22T06:01:07;96028.88;;;7.96;79.03
43711;BME280;29309;42.682;23.372;2022-10-22T06:03:33;96025.13;;;8.01;78.36
43711;BME280;29309;42.682;23.372;2022-10-22T06:06:01;96028.31;;;8.07;77.79
43711;BME280;29309;42.682;23.372;2022-10-22T06:08:28;96036.91;;;8.11;77.30
43711;BME280;29309;42.682;23.372;2022-10-22T06:10:53;96033.41;;;8.20;77.28
43711;BME280;29309;42.682;23.372;2022-10-22T06:13:19;96029.34;;;8.40;76.87
43711;BME280;29309;42.682;23.372;2022-10-22T06:15:45;96032.22;;;8.71;77.21
43711;BME280;29309;42.682;23.372;2022-10-22T06:18:10;96036.66;;;8.96;75.85
43711;BME280;29309;42.682;23.372;2022-10-22T06:20:36;96032.94;;;9.22;74.47
43711;BME280;29309;42.682;23.372;2022-10-22T06:23:01;96035.31;;;9.47;73.40
43711;BME280;29309;42.682;23.372;2022-10-22T06:25:27;96035.13;;;9.75;72.35
43711;BME280;29309;42.682;23.372;2022-10-22T06:27:52;96037.72;;;10.04;71.70
43711;BME280;29309;42.682;23.372;2022-10-22T06:30:18;96038.09;;;10.31;69.65
43711;BME280;29309;42.682;23.372;2022-10-22T06:32:43;96038.47;;;10.59;67.67
43711;BME280;29309;42.682;23.372;2022-10-22T06:35:09;96039.63;;;10.89;66.75
43711;BME280;29309;42.682;23.372;2022-10-22T06:37:34;96047.78;;;11.19;65.42
43711;BME280;29309;42.682;23.372;2022-10-22T06:40:00;96051.16;;;11.53;64.39
43711;BME280;29309;42.682;23.372;2022-10-22T06:42:27;96043.19;;;11.82;63.89
43711;BME280;29309;42.682;23.372;2022-10-22T06:44:52;96039.38;;;12.12;62.66
43711;BME280;29309;42.682;23.372;2022-10-22T06:47:18;96038.31;;;12.43;61.39
43711;BME280;29309;42.682;23.372;2022-10-22T06:49:43;96043.41;;;12.71;60.57
43711;BME280;29309;42.682;23.372;2022-10-22T06:52:09;96041.53;;;13.01;58.96
43711;BME280;29309;42.682;23.372;2022-10-22T06:54:34;96038.94;;;13.30;58.31
43711;BME280;29309;42.682;23.372;2022-10-22T06:56:59;96040.44;;;13.59;57.11
43711;BME280;29309;42.682;23.372;2022-10-22T06:59:25;96042.91;;;13.80;56.25
43711;BME280;29309;42.682;23.372;2022-10-22T07:01:50;96046.59;;;14.12;55.35
43711;BME280;29309;42.682;23.372;2022-10-22T07:04:16;96044.69;;;14.44;54.05
43711;BME280;29309;42.682;23.372;2022-10-22T07:06:41;96038.38;;;14.72;53.74
43711;BME280;29309;42.682;23.372;2022-10-22T07:09:07;96046.13;;;15.03;52.44
43711;BME280;29309;42.682;23.372;2022-10-22T07:11:53;96035.97;;;15.25;51.80
43711;BME280;29309;42.682;23.372;2022-10-22T07:14:19;96025.59;;;15.44;50.44
43711;BME280;29309;42.682;23.372;2022-10-22T07:16:44;96029.47;;;15.52;50.05
43711;BME280;29309;42.682;23.372;2022-10-22T07:19:11;96031.28;;;15.77;49.88
43711;BME280;29309;42.682;23.372;2022-10-22T07:21:37;96027.75;;;16.10;49.44
43711;BME280;29309;42.682;23.372;2022-10-22T07:24:05;96027.75;;;16.43;48.32
43711;BME280;29309;42.682;23.372;2022-10-22T07:26:32;96034.59;;;16.73;47.90
43711;BME280;29309;42.682;23.372;2022-10-22T07:28:59;96027.84;;;16.98;47.12
43711;BME280;29309;42.682;23.372;2022-10-22T07:31:24;96031.50;;;17.20;45.58
43711;BME280;29309;42.682;23.372;2022-10-22T07:33:50;96025.97;;;17.22;44.81
43711;BME280;29309;42.682;23.372;2022-10-22T07:36:16;96026.63;;;17.21;44.04
43711;BME280;29309;42.682;23.372;2022-10-22T07:38:46;96022.44;;;17.22;44.25
43711;BME280;29309;42.682;23.372;2022-10-22T07:41:13;96022.44;;;17.22;44.92
43711;BME280;29309;42.682;23.372;2022-10-22T07:43:38;96021.97;;;17.47;44.20
43711;BME280;29309;42.682;23.372;2022-10-22T07:46:04;96011.31;;;17.44;43.84
43711;BME280;29309;42.682;23.372;2022-10-22T07:48:29;96009.94;;;17.45;43.86
43711;BME280;29309;42.682;23.372;2022-10-22T07:50:55;96000.53;;;17.56;44.30
43711;BME280;29309;42.682;23.372;2022-10-22T07:53:22;96000.47;;;17.74;44.60
43711;BME280;29309;42.682;23.372;2022-10-22T07:55:49;95996.03;;;17.86;43.04
43711;BME280;29309;42.682;23.372;2022-10-22T07:58:18;96002.78;;;17.79;43.26
43711;BME280;29309;42.682;23.372;2022-10-22T08:00:44;96007.31;;;17.88;43.37
43711;BME280;29309;42.682;23.372;2022-10-22T08:03:11;96004.34;;;18.04;44.28
43711;BME280;29309;42.682;23.372;2022-10-22T08:05:36;96003.00;;;18.27;42.30
43711;BME280;29309;42.682;23.372;2022-10-22T08:08:04;96003.84;;;18.31;43.73
43711;BME280;29309;42.682;23.372;2022-10-22T08:10:30;95991.09;;;18.50;43.34
43711;BME280;29309;42.682;23.372;2022-10-22T08:12:56;95985.78;;;18.58;42.41
43711;BME280;29309;42.682;23.372;2022-10-22T08:15:21;95977.81;;;18.31;42.55
43711;BME280;29309;42.682;23.372;2022-10-22T08:17:49;95986.22;;;18.29;43.47
43711;BME280;29309;42.682;23.372;2022-10-22T08:20:14;95989.28;;;18.37;44.87
43711;BME280;29309;42.682;23.372;2022-10-22T08:22:40;95992.75;;;18.57;43.91
43711;BME280;29309;42.682;23.372;2022-10-22T08:25:06;95976.94;;;18.67;44.38
43711;BME280;29309;42.682;23.372;2022-10-22T08:27:31;95973.44;;;18.91;43.74
43711;BME280;29309;42.682;23.372;2022-10-22T08:29:57;95967.63;;;19.08;41.21
43711;BME280;29309;42.682;23.372;2022-10-22T08:32:23;95972.19;;;19.20;42.41
43711;BME280;29309;42.682;23.372;2022-10-22T08:34:48;95972.50;;;19.06;40.88
43711;BME280;29309;42.682;23.372;2022-10-22T08:37:14;95983.38;;;18.94;41.82
43711;BME280;29309;42.682;23.372;2022-10-22T08:39:41;95982.00;;;18.95;41.86
43711;BME280;29309;42.682;23.372;2022-10-22T08:45:14;95974.41;;;19.23;41.72
43711;BME280;29309;42.682;23.372;2022-10-22T08:48:01;95978.47;;;19.18;40.83
43711;BME280;29309;42.682;23.372;2022-10-22T08:50:41;95979.72;;;19.13;41.14
43711;BME280;29309;42.682;23.372;2022-10-22T08:53:19;95975.31;;;19.06;40.82
43711;BME280;29309;42.682;23.372;2022-10-22T08:55:46;95969.13;;;18.88;42.12
43711;BME280;29309;42.682;23.372;2022-10-22T08:58:20;95964.03;;;19.06;44.23
43711;BME280;29309;42.682;23.372;2022-10-22T09:01:13;95967.78;;;19.38;41.86
43711;BME280;29309;42.682;23.372;2022-10-22T09:08:45;95966.66;;;19.47;40.16
43711;BME280;29309;42.682;23.372;2022-10-22T09:13:38;95955.06;;;19.61;40.67
43711;BME280;29309;42.682;23.372;2022-10-22T09:16:38;95967.63;;;19.56;39.32
43711;BME280;29309;42.682;23.372;2022-10-22T09:19:29;95959.38;;;19.40;40.08
43711;BME280;29309;42.682;23.372;2022-10-22T09:25:28;95947.00;;;19.26;43.42
43711;BME280;29309;42.682;23.372;2022-10-22T09:27:55;95941.34;;;19.24;41.94
43711;BME280;29309;42.682;23.372;2022-10-22T09:30:27;95939.38;;;19.04;40.75
43711;BME280;29309;42.682;23.372;2022-10-22T09:33:00;95939.84;;;18.97;42.17
43711;BME280;29309;42.682;23.372;2022-10-22T09:35:26;95938.16;;;19.11;41.74
43711;BME280;29309;42.682;23.372;2022-10-22T09:37:54;95942.00;;;18.98;41.04
43711;BME280;29309;42.682;23.372;2022-10-22T09:40:21;95936.06;;;18.88;41.69
43711;BME280;29309;42.682;23.372;2022-10-22T09:42:48;95924.09;;;18.88;42.05
43711;BME280;29309;42.682;23.372;2022-10-22T09:45:23;95922.06;;;18.90;42.27
43711;BME280;29309;42.682;23.372;2022-10-22T09:47:50;95918.22;;;19.03;41.53
43711;BME280;29309;42.682;23.372;2022-10-22T09:50:28;95915.31;;;18.76;41.09
43711;BME280;29309;42.682;23.372;2022-10-22T09:53:12;95917.09;;;18.65;42.20
43711;BME280;29309;42.682;23.372;2022-10-22T09:55:40;95916.38;;;18.64;43.98
43711;BME280;29309;42.682;23.372;2022-10-22T09:58:12;95916.38;;;18.64;42.56
43711;BME280;29309;42.682;23.372;2022-10-22T10:00:39;95911.25;;;18.81;42.34
43711;BME280;29309;42.682;23.372;2022-10-22T10:03:05;95906.88;;;18.76;42.48
43711;BME280;29309;42.682;23.372;2022-10-22T10:05:33;95902.91;;;18.85;42.58
43711;BME280;29309;42.682;23.372;2022-10-22T10:08:25;95894.59;;;18.65;42.41
43711;BME280;29309;42.682;23.372;2022-10-22T10:11:16;95893.16;;;18.64;42.80
43711;BME280;29309;42.682;23.372;2022-10-22T10:13:51;95888.84;;;18.61;42.41
43711;BME280;29309;42.682;23.372;2022-10-22T10:16:53;95903.06;;;18.67;42.78
43711;BME280;29309;42.682;23.372;2022-10-22T10:19:29;95895.44;;;18.70;43.11
43711;BME280;29309;42.682;23.372;2022-10-22T10:27:58;95881.22;;;18.20;43.50
43711;BME280;29309;42.682;23.372;2022-10-22T10:30:25;95869.34;;;18.22;43.38
43711;BME280;29309;42.682;23.372;2022-10-22T10:33:04;95867.84;;;18.42;43.42
43711;BME280;29309;42.682;23.372;2022-10-22T10:36:01;95877.09;;;18.45;43.86
43711;BME280;29309;42.682;23.372;2022-10-22T10:38:37;95866.28;;;18.59;43.61
43711;BME280;29309;42.682;23.372;2022-10-22T10:41:16;95855.75;;;18.59;43.84
43711;BME280;29309;42.682;23.372;2022-10-22T10:46:20;95849.41;;;18.83;43.96
43711;BME280;29309;42.682;23.372;2022-10-22T10:48:59;95842.25;;;19.03;44.43
43711;BME280;29309;42.682;23.372;2022-10-22T11:08:13;95802.13;;;19.03;42.93
43711;BME280;29309;42.682;23.372;2022-10-22T11:13:40;95796.28;;;18.95;43.20
43711;BME280;29309;42.682;23.372;2022-10-22T11:16:20;95791.03;;;19.09;42.25
43711;BME280;29309;42.682;23.372;2022-10-22T11:19:12;95781.38;;;19.16;41.66
43711;BME280;29309;42.682;23.372;2022-10-22T11:21:55;95772.03;;;19.35;40.98
43711;BME280;29309;42.682;23.372;2022-10-22T11:25:00;95764.47;;;19.42;41.21
43711;BME280;29309;42.682;23.372;2022-10-22T11:27:36;95760.16;;;19.67;40.84
43711;BME280;29309;42.682;23.372;2022-10-22T11:30:10;95762.19;;;19.94;40.64
43711;BME280;29309;42.682;23.372;2022-10-22T11:32:37;95760.16;;;20.28;39.88
43711;BME280;29309;42.682;23.372;2022-10-22T11:35:06;95755.78;;;20.55;38.94
43711;BME280;29309;42.682;23.372;2022-10-22T11:37:34;95751.28;;;20.76;38.87
43711;BME280;29309;42.682;23.372;2022-10-22T11:42:56;95743.81;;;21.72;36.01
43711;BME280;29309;42.682;23.372;2022-10-22T11:50:27;95725.81;;;22.45;35.34
43711;BME280;29309;42.682;23.372;2022-10-22T11:55:47;95726.41;;;22.96;34.63
43711;BME280;29309;42.682;23.372;2022-10-22T12:06:27;95717.66;;;24.36;31.64
43711;BME280;29309;42.682;23.372;2022-10-22T12:11:36;95715.63;;;24.61;31.20
43711;BME280;29309;42.682;23.372;2022-10-22T12:16:52;95712.00;;;24.42;31.20
43711;BME280;29309;42.682;23.372;2022-10-22T12:19:29;95699.34;;;23.55;32.41
43711;BME280;29309;42.682;23.372;2022-10-22T12:22:06;95704.28;;;22.80;33.46
43711;BME280;29309;42.682;23.372;2022-10-22T12:24:38;95697.13;;;22.15;34.88
43711;BME280;29309;42.682;23.372;2022-10-22T12:29:48;95698.63;;;20.90;36.97
43711;BME280;29309;42.682;23.372;2022-10-22T12:32:17;95701.53;;;20.58;38.18
43711;BME280;29309;42.682;23.372;2022-10-22T12:34:47;95698.75;;;20.25;38.78
43711;BME280;29309;42.682;23.372;2022-10-22T12:37:15;95687.97;;;19.83;39.18
43711;BME280;29309;42.682;23.372;2022-10-22T12:39:40;95689.09;;;19.70;39.74
43711;BME280;29309;42.682;23.372;2022-10-22T12:42:09;95687.75;;;19.43;40.59
43711;BME280;29309;42.682;23.372;2022-10-22T12:44:37;95683.22;;;19.30;41.07
43711;BME280;29309;42.682;23.372;2022-10-22T12:47:02;95679.47;;;19.22;41.70
43711;BME280;29309;42.682;23.372;2022-10-22T12:49:35;95679.22;;;19.11;41.14
43711;BME280;29309;42.682;23.372;2022-10-22T12:52:05;95674.88;;;19.06;40.93
43711;BME280;29309;42.682;23.372;2022-10-22T12:54:32;95667.72;;;19.01;40.84
43711;BME280;29309;42.682;23.372;2022-10-22T12:56:59;95674.47;;;18.90;41.26
43711;BME280;29309;42.682;23.372;2022-10-22T12:59:27;95667.25;;;18.83;41.23
43711;BME280;29309;42.682;23.372;2022-10-22T13:01:53;95668.78;;;18.88;40.63
43711;BME280;29309;42.682;23.372;2022-10-22T13:09:57;95660.06;;;18.76;41.75
43711;BME280;29309;42.682;23.372;2022-10-22T13:12:25;95661.31;;;18.71;41.86
43711;BME280;29309;42.682;23.372;2022-10-22T13:14:51;95666.94;;;18.71;41.96
43711;BME280;29309;42.682;23.372;2022-10-22T13:17:19;95664.09;;;18.69;41.95
43711;BME280;29309;42.682;23.372;2022-10-22T13:19:48;95657.59;;;18.62;42.02
43711;BME280;29309;42.682;23.372;2022-10-22T13:24:58;95655.66;;;18.69;42.24
43711;BME280;29309;42.682;23.372;2022-10-22T13:27:27;95647.22;;;18.69;42.03
43711;BME280;29309;42.682;23.372;2022-10-22T13:29:54;95645.78;;;18.68;42.36
43711;BME280;29309;42.682;23.372;2022-10-22T13:34:52;95645.16;;;18.72;42.16
43711;BME280;29309;42.682;23.372;2022-10-22T13:37:19;95641.81;;;18.77;42.71
43711;BME280;29309;42.682;23.372;2022-10-22T13:39:44;95644.63;;;18.77;42.49
43711;BME280;29309;42.682;23.372;2022-10-22T13:42:11;95643.28;;;18.80;42.49
43711;BME280;29309;42.682;23.372;2022-10-22T13:44:36;95636.09;;;18.75;42.78
43711;BME280;29309;42.682;23.372;2022-10-22T13:47:02;95634.72;;;18.76;42.86
43711;BME280;29309;42.682;23.372;2022-10-22T13:49:27;95643.09;;;18.74;42.85
43711;BME280;29309;42.682;23.372;2022-10-22T13:51:53;95635.34;;;18.73;42.49
43711;BME280;29309;42.682;23.372;2022-10-22T13:54:20;95638.31;;;18.79;42.55
43711;BME280;29309;42.682;23.372;2022-10-22T13:56:47;95638.38;;;18.81;42.67
43711;BME280;29309;42.682;23.372;2022-10-22T13:59:12;95636.19;;;18.77;43.15
43711;BME280;29309;42.682;23.372;2022-10-22T14:01:38;95636.09;;;18.75;43.26
43711;BME280;29309;42.682;23.372;2022-10-22T14:04:05;95641.00;;;18.75;43.35
43711;BME280;29309;42.682;23.372;2022-10-22T14:06:33;95643.22;;;18.78;43.05
43711;BME280;29309;42.682;23.372;2022-10-22T14:09:05;95640.25;;;18.72;43.14
43711;BME280;29309;42.682;23.372;2022-10-22T14:11:33;95642.25;;;18.67;43.46
43711;BME280;29309;42.682;23.372;2022-10-22T14:13:59;95635.13;;;18.64;43.43
43711;BME280;29309;42.682;23.372;2022-10-22T14:16:28;95635.03;;;18.60;43.78
43711;BME280;29309;42.682;23.372;2022-10-22T14:18:56;95628.78;;;18.64;43.77
43711;BME280;29309;42.682;23.372;2022-10-22T14:21:22;95631.09;;;18.72;42.85
43711;BME280;29309;42.682;23.372;2022-10-22T14:23:48;95630.44;;;18.73;42.79
43711;BME280;29309;42.682;23.372;2022-10-22T14:26:27;95625.25;;;18.63;43.24
43711;BME280;29309;42.682;23.372;2022-10-22T14:28:54;95619.44;;;18.55;43.54
43711;BME280;29309;42.682;23.372;2022-10-22T14:31:20;95622.91;;;18.54;43.41
43711;BME280;29309;42.682;23.372;2022-10-22T14:33:46;95622.88;;;18.52;43.69
43711;BME280;29309;42.682;23.372;2022-10-22T14:36:12;95621.19;;;18.43;43.79
43711;BME280;29309;42.682;23.372;2022-10-22T14:38:39;95621.91;;;18.43;44.21
43711;BME280;29309;42.682;23.372;2022-10-22T14:41:13;95619.09;;;18.43;44.36
43711;BME280;29309;42.682;23.372;2022-10-22T14:43:41;95619.63;;;18.38;44.29
43711;BME280;29309;42.682;23.372;2022-10-22T14:46:07;95613.94;;;18.34;44.58
43711;BME280;29309;42.682;23.372;2022-10-22T14:48:35;95624.38;;;18.31;44.82
43711;BME280;29309;42.682;23.372;2022-10-22T14:51:00;95615.91;;;18.29;44.85
43711;BME280;29309;42.682;23.372;2022-10-22T14:53:25;95621.06;;;18.39;44.45
43711;BME280;29309;42.682;23.372;2022-10-22T14:55:51;95622.44;;;18.38;44.51
43711;BME280;29309;42.682;23.372;2022-10-22T14:58:19;95626.53;;;18.33;45.02